Time;durP1;ratioP1;P1;durP2;ratioP2;P2;SDS_P1;SDS_P2;PMS_P1;PMS_P2;Temp;Humidity;BMP_temperature;BMP_pressure;BME280_temperature;BME280_humidity;BME280_pressure;Samples;Min_cycle;Max_cycle;Signal;HPM_P1;HPM_P2
2023/01/24 00:00:39;;;;;;;;;;;;;;;6.65;55.29;102563.53;4978804;28;8251;-72
2023/01/24 00:03:04;;;;;;;;;;;;;;;6.65;54.76;102561.00;4972944;28;6788;-72
2023/01/24 00:05:33;;;;;;;;;;;;;;;6.63;54.59;102562.50;4981757;28;6811;-73
2023/01/24 00:07:59;;;;;;;;;;;;;;;6.63;54.96;102565.03;4982076;28;6792;-72
2023/01/24 00:10:25;;;;;;;;;;;;;;;6.63;54.50;102566.69;4986538;28;6780;-72
2023/01/24 00:12:51;;;;;;;;;;;;;;;6.62;54.80;102562.34;4979125;28;6780;-73
2023/01/24 00:15:16;;;;;;;;;;;;;;;6.62;54.54;102562.34;4983966;28;7237;-73
2023/01/24 00:17:42;;;;;;;;;;;;;;;6.60;54.99;102561.28;4981151;28;6851;-72
2023/01/24 00:20:09;;;;;;;;;;;;;;;6.62;54.59;102565.81;4985107;28;7820;-72
2023/01/24 00:22:34;;;;;;;;;;;;;;;6.61;54.57;102563.97;4982106;28;6792;-72
2023/01/24 00:25:00;;;;;;;;;;;;;;;6.63;55.04;102566.69;4993692;28;7121;-72
2023/01/24 00:27:25;;;;;;;;;;;;;;;6.63;54.51;102561.59;4990921;28;7304;-72
2023/01/24 00:29:51;;;;;;;;;;;;;;;6.64;55.02;102563.38;4986709;28;8000;-72
2023/01/24 00:32:17;;;;;;;;;;;;;;;6.65;55.14;102573.75;4990298;28;7031;-72
2023/01/24 00:34:42;;;;;;;;;;;;;;;6.66;54.84;102567.88;4985246;28;6788;-72
2023/01/24 00:37:08;;;;;;;;;;;;;;;6.67;54.70;102579.88;4982419;28;6848;-72
2023/01/24 00:39:34;;;;;;;;;;;;;;;6.66;54.66;102572.06;4980163;28;6787;-72
2023/01/24 00:41:59;;;;;;;;;;;;;;;6.67;54.68;102571.34;4981890;28;6852;-72
2023/01/24 00:44:25;;;;;;;;;;;;;;;6.67;54.42;102568.81;4978358;28;7861;-72
2023/01/24 00:46:52;;;;;;;;;;;;;;;6.65;54.32;102571.19;4979128;28;6844;-72
2023/01/24 00:49:17;;;;;;;;;;;;;;;6.64;54.48;102560.84;4980010;28;6979;-72
2023/01/24 00:51:43;;;;;;;;;;;;;;;6.65;54.15;102565.19;4979318;28;6791;-72
2023/01/24 00:54:09;;;;;;;;;;;;;;;6.68;54.17;102570.59;4979515;28;6851;-72
2023/01/24 00:56:34;;;;;;;;;;;;;;;6.68;54.17;102565.50;4997114;28;7146;-72
2023/01/24 00:59:00;;;;;;;;;;;;;;;6.69;53.91;102559.66;4982448;28;6780;-72
2023/01/24 01:01:26;;;;;;;;;;;;;;;6.70;54.36;102556.34;4983365;28;6772;-72
2023/01/24 01:03:55;;;;;;;;;;;;;;;6.71;54.49;102565.78;4981449;28;6787;-72
2023/01/24 01:06:22;;;;;;;;;;;;;;;6.71;54.50;102564.88;4975279;28;6800;-72
2023/01/24 01:08:48;;;;;;;;;;;;;;;6.71;54.29;102564.88;4979351;28;6958;-72
2023/01/24 01:11:13;;;;;;;;;;;;;;;6.71;53.94;102568.34;4982102;28;6840;-72
2023/01/24 01:13:39;;;;;;;;;;;;;;;6.72;54.15;102567.59;4981047;28;6780;-72
2023/01/24 01:16:12;;;;;;;;;;;;;;;6.73;53.93;102559.19;4987814;28;7192;-72
2023/01/24 01:18:38;;;;;;;;;;;;;;;6.76;54.08;102569.72;4984359;28;6796;-72
2023/01/24 01:21:05;;;;;;;;;;;;;;;6.77;54.29;102561.31;4984670;28;6821;-72
2023/01/24 01:23:32;;;;;;;;;;;;;;;6.77;53.90;102566.41;4979535;28;6800;-72
2023/01/24 01:26:04;;;;;;;;;;;;;;;6.78;53.78;102563.09;4982380;28;6784;-72
2023/01/24 01:28:31;;;;;;;;;;;;;;;6.78;54.34;102563.09;4980811;28;6828;-72
2023/01/24 01:30:57;;;;;;;;;;;;;;;6.80;53.93;102569.25;4980749;28;8363;-72
2023/01/24 01:33:23;;;;;;;;;;;;;;;6.79;53.86;102559.81;4981505;28;7413;-72
2023/01/24 01:35:49;;;;;;;;;;;;;;;6.79;53.76;102563.97;4979765;28;7371;-72
2023/01/24 01:38:16;;;;;;;;;;;;;;;6.81;53.63;102562.50;4985663;28;7090;-72
2023/01/24 01:40:42;;;;;;;;;;;;;;;6.79;54.23;102562.34;4983905;28;7943;-72
2023/01/24 01:43:15;;;;;;;;;;;;;;;6.80;54.34;102564.16;4983017;28;6812;-72
2023/01/24 01:45:50;;;;;;;;;;;;;;;6.80;53.86;102568.34;4985334;28;6875;-72
2023/01/24 01:48:39;;;;;;;;;;;;;;;6.79;54.52;102571.63;4981455;28;7477;-72
2023/01/24 01:51:25;;;;;;;;;;;;;;;6.77;53.77;102574.06;4986665;28;7785;-72
2023/01/24 01:54:07;;;;;;;;;;;;;;;6.75;53.94;102567.88;4982940;28;6803;-72
2023/01/24 01:56:38;;;;;;;;;;;;;;;6.74;54.32;102571.19;4985026;28;7067;-72
2023/01/24 01:59:14;;;;;;;;;;;;;;;6.76;54.40;102568.78;4990292;28;7045;-72
2023/01/24 02:01:42;;;;;;;;;;;;;;;6.74;54.02;102563.53;4978698;28;9328;-72
2023/01/24 02:04:16;;;;;;;;;;;;;;;6.73;54.35;102566.84;4979680;28;7003;-72
2023/01/24 02:07:14;;;;;;;;;;;;;;;6.73;54.11;102573.59;4980484;28;6859;-72
2023/01/24 02:09:43;;;;;;;;;;;;;;;6.72;54.12;102569.25;4980728;28;7190;-72
2023/01/24 02:12:24;;;;;;;;;;;;;;;6.71;54.65;102568.34;4994838;28;6816;-72
2023/01/24 02:17:44;;;;;;;;;;;;;;;6.71;54.72;102572.53;4983643;28;6804;-72
2023/01/24 02:20:41;;;;;;;;;;;;;;;6.71;54.31;102569.97;4981792;28;6772;-73
2023/01/24 02:23:57;;;;;;;;;;;;;;;6.70;54.48;102573.28;4983031;28;10179;-72
2023/01/24 02:26:27;;;;;;;;;;;;;;;6.69;54.36;102572.41;4988390;28;7269;-72
2023/01/24 02:28:59;;;;;;;;;;;;;;;6.72;54.53;102567.59;4991757;28;6860;-72
2023/01/24 02:31:25;;;;;;;;;;;;;;;6.72;54.77;102564.16;4994045;28;6970;-73
2023/01/24 02:33:50;;;;;;;;;;;;;;;6.74;54.68;102565.19;4982176;28;6784;-72
2023/01/24 02:36:34;;;;;;;;;;;;;;;6.72;54.02;102569.25;4987142;28;6953;-72
2023/01/24 02:39:08;;;;;;;;;;;;;;;6.70;54.55;102563.09;4981655;28;7110;-72
2023/01/24 02:41:52;;;;;;;;;;;;;;;6.71;54.61;102565.78;4985146;28;6796;-72
2023/01/24 02:44:34;;;;;;;;;;;;;;;6.69;54.59;102559.66;4987207;28;7699;-72
2023/01/24 02:47:00;;;;;;;;;;;;;;;6.70;53.99;102561.44;4986356;28;6880;-72
2023/01/24 02:49:25;;;;;;;;;;;;;;;6.70;54.37;102566.53;4984987;28;7075;-72
2023/01/24 02:54:35;;;;;;;;;;;;;;;6.69;54.74;102564.75;4985497;28;6808;-72
2023/01/24 02:59:45;;;;;;;;;;;;;;;6.67;54.32;102558.59;4985552;28;6891;-72
2023/01/24 03:02:10;;;;;;;;;;;;;;;6.68;53.99;102557.84;4984827;28;7176;-72
2023/01/24 03:04:36;;;;;;;;;;;;;;;6.68;54.30;102552.75;4984283;28;7134;-72
2023/01/24 03:07:02;;;;;;;;;;;;;;;6.67;54.21;102553.50;4984046;28;7253;-72
2023/01/24 03:09:38;;;;;;;;;;;;;;;6.67;53.83;102548.41;4974062;28;6963;-72
2023/01/24 03:36:53;;;;;;;;;;;;;;;6.62;54.74;102541.94;4985231;28;6792;-72
2023/01/24 03:42:03;;;;;;;;;;;;;;;6.63;54.31;102544.66;4975481;28;7258;-72
2023/01/24 03:44:29;;;;;;;;;;;;;;;6.63;54.73;102537.00;4974830;28;8156;-72
2023/01/24 03:46:54;;;;;;;;;;;;;;;6.63;54.50;102547.22;4977715;28;6775;-72
2023/01/24 03:54:48;;;;;;;;;;;;;;;6.61;54.09;102552.91;4972766;28;6800;-72
2023/01/24 03:57:14;;;;;;;;;;;;;;;6.61;54.24;102558.00;4961812;28;7304;-73
2023/01/24 03:59:39;;;;;;;;;;;;;;;6.61;54.65;102552.91;4981645;28;6756;-73
2023/01/24 04:02:05;;;;;;;;;;;;;;;6.61;54.28;102550.34;4976594;28;6852;-73
2023/01/24 04:05:12;;;;;;;;;;;;;;;6.60;54.38;102540.91;4984598;28;6951;-73
2023/01/24 04:07:16;;;;;;;;;;;;;;;6.59;54.85;102540.00;4983816;28;7317;-73
2023/01/24 04:09:42;;;;;;;;;;;;;;;6.61;54.65;102545.25;4984752;28;6794;-73
2023/01/24 04:12:07;;;;;;;;;;;;;;;6.63;54.54;102541.19;4980602;28;6971;-73
2023/01/24 04:14:33;;;;;;;;;;;;;;;6.64;54.60;102540.44;4980952;28;7242;-73
2023/01/24 04:16:59;;;;;;;;;;;;;;;6.65;54.22;102538.06;4980377;28;6776;-72
2023/01/24 04:19:24;;;;;;;;;;;;;;;6.65;54.66;102542.25;4978138;28;6931;-73
2023/01/24 04:21:50;;;;;;;;;;;;;;;6.63;54.72;102538.66;4975958;28;6772;-73
2023/01/24 04:24:15;;;;;;;;;;;;;;;6.62;54.17;102540.31;4983906;28;7110;-73
2023/01/24 04:26:42;;;;;;;;;;;;;;;6.61;54.45;102545.25;4952277;28;6944;-73
2023/01/24 04:29:08;;;;;;;;;;;;;;;6.61;54.72;102546.13;4976174;28;7181;-73
2023/01/24 04:31:33;;;;;;;;;;;;;;;6.60;54.61;102540.91;4966260;28;6804;-73
2023/01/24 04:33:59;;;;;;;;;;;;;;;6.61;54.24;102527.41;4972965;28;7051;-73
2023/01/24 04:36:25;;;;;;;;;;;;;;;6.60;54.90;102535.81;4981549;28;6882;-73
2023/01/24 04:38:50;;;;;;;;;;;;;;;6.59;54.07;102534.00;4980273;28;6772;-72
2023/01/24 04:41:16;;;;;;;;;;;;;;;6.60;54.24;102530.72;4971732;28;7536;-73
2023/01/24 04:43:42;;;;;;;;;;;;;;;6.60;54.51;102525.63;4980932;28;6829;-73
2023/01/24 04:46:08;;;;;;;;;;;;;;;6.60;54.32;102531.59;4968498;28;6831;-73
2023/01/24 04:48:34;;;;;;;;;;;;;;;6.60;54.47;102526.50;4969529;28;7805;-73
2023/01/24 04:51:00;;;;;;;;;;;;;;;6.61;54.14;102529.97;4951807;28;6949;-73
2023/01/24 04:53:28;;;;;;;;;;;;;;;6.61;54.39;102527.41;4973644;28;6780;-73
2023/01/24 04:55:54;;;;;;;;;;;;;;;6.61;54.80;102537.59;4986144;28;7217;-73
2023/01/24 04:58:20;;;;;;;;;;;;;;;6.61;54.06;102535.06;4995209;28;7063;-73
2023/01/24 05:00:48;;;;;;;;;;;;;;;6.60;54.05;102536.69;4973874;28;7277;-73
2023/01/24 05:03:14;;;;;;;;;;;;;;;6.62;54.28;102534.31;4990874;28;7205;-73
2023/01/24 05:05:39;;;;;;;;;;;;;;;6.62;54.44;102534.31;4973678;28;6784;-73
2023/01/24 05:08:05;;;;;;;;;;;;;;;6.62;54.03;102535.22;4959994;28;6982;-73
2023/01/24 05:10:31;;;;;;;;;;;;;;;6.62;54.73;102541.94;4987227;28;7327;-73
2023/01/24 05:12:56;;;;;;;;;;;;;;;6.62;54.33;102532.66;4962474;28;7105;-74
2023/01/24 05:15:22;;;;;;;;;;;;;;;6.64;54.23;102540.44;4966754;28;7504;-73
2023/01/24 05:17:48;;;;;;;;;;;;;;;6.62;54.60;102540.31;4976795;28;6784;-73
2023/01/24 05:20:14;;;;;;;;;;;;;;;6.62;54.61;102539.41;4978939;28;6833;-73
2023/01/24 05:22:40;;;;;;;;;;;;;;;6.62;54.04;102534.31;4976344;28;7267;-73
2023/01/24 05:25:06;;;;;;;;;;;;;;;6.60;54.54;102536.69;4997164;28;7366;-73
2023/01/24 05:27:32;;;;;;;;;;;;;;;6.60;54.36;102540.91;4995145;28;6776;-73
2023/01/24 05:29:57;;;;;;;;;;;;;;;6.59;54.45;102541.66;4969785;28;6919;-73
2023/01/24 05:32:23;;;;;;;;;;;;;;;6.59;54.28;102541.66;4987464;28;7231;-73
2023/01/24 05:34:49;;;;;;;;;;;;;;;6.58;54.22;102545.84;4982419;28;6779;-73
2023/01/24 05:37:14;;;;;;;;;;;;;;;6.58;54.19;102540.75;4977979;28;7111;-73
2023/01/24 05:39:40;;;;;;;;;;;;;;;6.59;54.47;102555.28;4996038;28;6935;-74
2023/01/24 05:42:05;;;;;;;;;;;;;;;6.60;54.48;102556.19;4976163;28;6828;-73
2023/01/24 05:44:31;;;;;;;;;;;;;;;6.59;54.53;102549.31;4978211;28;7343;-73
2023/01/24 05:46:57;;;;;;;;;;;;;;;6.59;54.43;102549.31;4977464;28;6989;-73
2023/01/24 05:49:22;;;;;;;;;;;;;;;6.60;54.39;102561.28;4979923;28;6870;-73
2023/01/24 05:51:48;;;;;;;;;;;;;;;6.59;54.18;102557.81;4980693;28;6840;-73
2023/01/24 05:54:13;;;;;;;;;;;;;;;6.59;53.92;102559.50;4957743;28;6928;-73
2023/01/24 05:56:39;;;;;;;;;;;;;;;6.58;53.95;102563.69;4978605;28;6776;-73
2023/01/24 05:59:05;;;;;;;;;;;;;;;6.59;54.01;102567.13;4972130;28;6998;-73
2023/01/24 06:01:30;;;;;;;;;;;;;;;6.57;54.40;102577.16;4981210;28;8494;-73
2023/01/24 06:03:56;;;;;;;;;;;;;;;6.55;53.74;102570.13;4981934;28;6848;-73
2023/01/24 06:06:24;;;;;;;;;;;;;;;6.53;53.68;102573.41;4962915;28;6948;-73
2023/01/24 06:08:51;;;;;;;;;;;;;;;6.51;53.88;102569.81;4974513;28;7849;-73
2023/01/24 06:11:22;;;;;;;;;;;;;;;6.51;54.24;102574.91;4982598;28;7286;-73
2023/01/24 06:13:49;;;;;;;;;;;;;;;6.51;54.05;102572.38;4958567;28;7095;-73
2023/01/24 06:16:19;;;;;;;;;;;;;;;6.51;54.15;102577.47;4970017;28;6997;-73
2023/01/24 06:18:46;;;;;;;;;;;;;;;6.51;53.88;102577.47;4970686;28;7249;-73
2023/01/24 06:21:40;;;;;;;;;;;;;;;6.50;54.09;102580.75;4984274;28;6796;-73
2023/01/24 06:24:18;;;;;;;;;;;;;;;6.47;53.78;102580.47;4989222;28;6811;-73
2023/01/24 06:26:45;;;;;;;;;;;;;;;6.47;54.38;102582.09;4988016;28;7685;-73
2023/01/24 06:29:11;;;;;;;;;;;;;;;6.45;54.04;102579.38;4977073;28;6800;-73
2023/01/24 06:32:05;;;;;;;;;;;;;;;6.46;54.14;102593.03;4983398;28;6804;-73
2023/01/24 06:35:17;;;;;;;;;;;;;;;6.44;54.29;102592.00;4979039;28;7245;-73
2023/01/24 06:37:51;;;;;;;;;;;;;;;6.42;53.94;102598.56;4962876;28;7075;-73
2023/01/24 06:40:22;;;;;;;;;;;;;;;6.42;54.11;102607.13;4987058;28;7920;-73
2023/01/24 06:42:50;;;;;;;;;;;;;;;6.42;54.29;102604.56;4977590;28;7134;-73
2023/01/24 06:45:17;;;;;;;;;;;;;;;6.41;54.18;102602.78;4981700;28;7316;-73
2023/01/24 06:47:43;;;;;;;;;;;;;;;6.41;54.12;102606.94;4982494;28;6808;-73
2023/01/24 06:50:21;;;;;;;;;;;;;;;6.39;54.12;102604.28;4984031;28;6796;-73
2023/01/24 06:52:48;;;;;;;;;;;;;;;6.38;53.87;102602.47;4977709;28;6983;-73
2023/01/24 06:55:15;;;;;;;;;;;;;;;6.38;54.19;102602.47;4980867;28;6984;-73
2023/01/24 06:57:41;;;;;;;;;;;;;;;6.36;54.04;102606.50;4986474;28;6935;-73
2023/01/24 07:00:08;;;;;;;;;;;;;;;6.36;53.89;102609.03;4984271;28;7122;-73
2023/01/24 07:02:33;;;;;;;;;;;;;;;6.33;54.03;102603.63;4958474;28;7164;-74
2023/01/24 07:04:59;;;;;;;;;;;;;;;6.34;53.75;102606.34;4977131;28;6768;-73
2023/01/24 07:07:25;;;;;;;;;;;;;;;6.35;53.94;102614.88;4983217;28;7117;-72
2023/01/24 07:09:50;;;;;;;;;;;;;;;6.35;54.17;102612.34;4988610;28;7182;-73
2023/01/24 07:12:17;;;;;;;;;;;;;;;6.36;54.27;102619.22;4967310;28;6772;-73
2023/01/24 07:14:43;;;;;;;;;;;;;;;6.34;53.62;102619.09;4980354;28;7646;-73
2023/01/24 07:17:10;;;;;;;;;;;;;;;6.36;54.14;102616.69;4961886;28;6988;-73
2023/01/24 07:19:36;;;;;;;;;;;;;;;6.37;53.58;102628.66;4986337;28;7139;-73
2023/01/24 07:22:02;;;;;;;;;;;;;;;6.35;53.80;102636.16;5002287;28;8523;-73
2023/01/24 07:24:30;;;;;;;;;;;;;;;6.38;54.24;102633.03;4985414;28;6795;-73
2023/01/24 07:26:57;;;;;;;;;;;;;;;6.39;54.07;102632.28;4984446;28;6792;-73
2023/01/24 07:29:23;;;;;;;;;;;;;;;6.37;53.85;102637.22;4981517;28;7134;-73
2023/01/24 07:31:49;;;;;;;;;;;;;;;6.37;54.14;102642.31;4983786;28;6978;-73
2023/01/24 07:34:16;;;;;;;;;;;;;;;6.38;53.83;102645.78;4977945;28;6804;-75
2023/01/24 07:36:47;;;;;;;;;;;;;;;6.40;53.89;102651.91;5002639;28;7242;-75
2023/01/24 07:39:13;;;;;;;;;;;;;;;6.42;54.08;102657.16;4984422;28;7671;-75
2023/01/24 07:41:42;;;;;;;;;;;;;;;6.42;53.99;102658.06;4981340;28;6803;-75
2023/01/24 07:44:08;;;;;;;;;;;;;;;6.43;53.93;102662.41;4980964;28;6962;-75
2023/01/24 07:46:34;;;;;;;;;;;;;;;6.44;54.13;102655.69;4980408;28;7276;-73
2023/01/24 07:49:00;;;;;;;;;;;;;;;6.45;54.12;102660.91;4979556;28;7393;-73
2023/01/24 07:51:26;;;;;;;;;;;;;;;6.46;54.11;102659.28;4976621;28;7111;-73
2023/01/24 07:53:51;;;;;;;;;;;;;;;6.45;53.64;102668.56;4969273;28;7013;-73
2023/01/24 07:56:17;;;;;;;;;;;;;;;6.45;53.59;102658.38;4977352;28;6952;-73
2023/01/24 07:58:43;;;;;;;;;;;;;;;6.45;53.97;102672.75;4967090;28;7186;-73
2023/01/24 08:01:15;;;;;;;;;;;;;;;6.45;53.94;102666.00;4986255;28;7169;-73
2023/01/24 08:03:40;;;;;;;;;;;;;;;6.45;53.45;102673.66;4984688;28;6962;-73
2023/01/24 08:06:06;;;;;;;;;;;;;;;6.46;53.77;102672.91;4980865;28;7872;-73
2023/01/24 08:08:32;;;;;;;;;;;;;;;6.48;54.00;102681.63;4982286;28;6796;-73
2023/01/24 08:10:57;;;;;;;;;;;;;;;6.47;53.78;102679.81;4984678;28;6935;-73
2023/01/24 08:13:23;;;;;;;;;;;;;;;6.47;53.83;102681.47;4988893;28;6823;-73
2023/01/24 08:15:49;;;;;;;;;;;;;;;6.48;53.84;102680.72;4977238;28;7176;-73
2023/01/24 08:18:17;;;;;;;;;;;;;;;6.50;53.78;102674.13;4975376;28;7193;-73
2023/01/24 08:20:43;;;;;;;;;;;;;;;6.50;54.09;102676.66;4979362;28;6800;-73
2023/01/24 08:23:08;;;;;;;;;;;;;;;6.52;53.40;102681.19;4956799;28;6999;-73
2023/01/24 08:25:34;;;;;;;;;;;;;;;6.55;53.30;102682.22;4982735;28;6784;-73
2023/01/24 08:28:00;;;;;;;;;;;;;;;6.58;53.42;102682.56;4983244;28;6979;-73
2023/01/24 08:30:25;;;;;;;;;;;;;;;6.63;53.56;102683.91;4963645;28;6851;-73
2023/01/24 08:33:04;;;;;;;;;;;;;;;6.68;53.61;102682.72;4991080;28;6825;-73
2023/01/24 08:35:31;;;;;;;;;;;;;;;6.73;53.97;102683.19;4978310;28;6800;-73
2023/01/24 08:37:57;;;;;;;;;;;;;;;6.76;53.52;102681.84;4983258;28;6792;-73
2023/01/24 08:40:23;;;;;;;;;;;;;;;6.79;53.66;102686.34;4981270;28;7011;-73
2023/01/24 08:42:49;;;;;;;;;;;;;;;6.80;53.41;102691.59;4965686;28;6982;-73
2023/01/24 08:45:15;;;;;;;;;;;;;;;6.84;53.68;102690.25;4981239;28;6780;-73
2023/01/24 08:47:40;;;;;;;;;;;;;;;6.88;52.99;102696.56;4981041;28;7120;-73
2023/01/24 08:50:08;;;;;;;;;;;;;;;6.89;52.79;102701.81;4980154;28;6784;-73
2023/01/24 08:52:34;;;;;;;;;;;;;;;6.90;52.72;102701.06;4977547;28;6816;-73
2023/01/24 08:54:59;;;;;;;;;;;;;;;6.94;52.61;102707.34;4997238;28;6772;-73
2023/01/24 08:57:25;;;;;;;;;;;;;;;6.97;52.53;102707.69;4983489;28;6764;-73
2023/01/24 08:59:51;;;;;;;;;;;;;;;7.01;52.69;102703.81;4984097;28;7001;-73
2023/01/24 09:02:16;;;;;;;;;;;;;;;7.02;52.68;102700.50;4976378;28;6772;-73
2023/01/24 09:04:42;;;;;;;;;;;;;;;7.03;52.73;102703.19;4983381;28;6801;-73
2023/01/24 09:07:11;;;;;;;;;;;;;;;7.05;52.50;102704.25;4982991;28;7213;-73
2023/01/24 09:09:37;;;;;;;;;;;;;;;7.08;52.68;102706.19;4980717;28;6835;-73
2023/01/24 09:12:03;;;;;;;;;;;;;;;7.11;52.77;102710.69;4980938;28;7848;-73
2023/01/24 09:14:29;;;;;;;;;;;;;;;7.15;52.14;102707.72;4984516;28;7110;-73
2023/01/24 09:16:54;;;;;;;;;;;;;;;7.19;52.29;102705.59;4982654;28;6937;-74
2023/01/24 09:19:20;;;;;;;;;;;;;;;7.22;52.14;102707.56;4977460;28;7833;-73
2023/01/24 09:21:50;;;;;;;;;;;;;;;7.24;52.76;102711.16;4982088;28;7121;-73
2023/01/24 09:24:16;;;;;;;;;;;;;;;7.26;52.11;102712.22;4988968;28;6825;-74
2023/01/24 09:26:44;;;;;;;;;;;;;;;7.28;51.78;102710.72;4983724;28;7662;-73
2023/01/24 09:29:10;;;;;;;;;;;;;;;7.29;51.72;102717.63;4982146;28;6863;-73
2023/01/24 09:31:36;;;;;;;;;;;;;;;7.31;51.65;102711.00;4981759;28;6775;-73
2023/01/24 09:34:02;;;;;;;;;;;;;;;7.30;52.42;102711.75;4972883;28;6953;-73
2023/01/24 09:36:29;;;;;;;;;;;;;;;7.31;51.79;102713.56;4987855;28;8549;-73
2023/01/24 09:38:56;;;;;;;;;;;;;;;7.31;52.13;102718.66;4980337;28;6879;-73
2023/01/24 09:41:58;;;;;;;;;;;;;;;7.31;51.59;102715.22;4981407;28;6804;-73
2023/01/24 09:44:51;;;;;;;;;;;;;;;7.32;52.06;102720.47;4983268;28;7106;-73
2023/01/24 09:47:51;;;;;;;;;;;;;;;7.34;52.00;102725.72;4981609;28;6803;-73
2023/01/24 09:50:52;;;;;;;;;;;;;;;7.34;51.38;102721.53;4980293;28;6963;-73
2023/01/24 09:53:25;;;;;;;;;;;;;;;7.32;51.89;102720.47;4945569;28;7355;-73
2023/01/24 09:55:52;;;;;;;;;;;;;;;7.32;50.92;102723.00;4980702;28;7317;-73
2023/01/24 09:58:43;;;;;;;;;;;;;;;7.32;51.55;102725.56;4986548;28;6888;-73
2023/01/24 10:01:13;;;;;;;;;;;;;;;7.32;51.45;102727.22;4985919;28;7809;-73
2023/01/24 10:03:40;;;;;;;;;;;;;;;7.31;51.96;102726.31;4984269;28;6833;-73
2023/01/24 10:06:23;;;;;;;;;;;;;;;7.31;51.13;102726.31;4987095;28;6803;-73
2023/01/24 10:09:26;;;;;;;;;;;;;;;7.30;51.15;102719.41;4985065;28;6804;-73
2023/01/24 10:12:28;;;;;;;;;;;;;;;7.30;52.08;102723.63;4994697;28;7289;-73
2023/01/24 10:14:59;;;;;;;;;;;;;;;7.34;51.30;102725.72;5000747;28;7402;-73
2023/01/24 10:18:15;;;;;;;;;;;;;;;7.40;51.83;102725.44;4976270;28;6796;-73
2023/01/24 10:21:53;;;;;;;;;;;;;;;7.42;52.10;102722.28;4983553;28;6820;-73
2023/01/24 10:24:29;;;;;;;;;;;;;;;7.44;51.75;102725.88;4937577;28;6853;-73
2023/01/24 10:26:55;;;;;;;;;;;;;;;7.47;50.94;102735.50;4902869;28;7027;-73
2023/01/24 10:29:26;;;;;;;;;;;;;;;7.48;51.70;102733.09;4951076;28;6828;-73
2023/01/24 10:32:05;;;;;;;;;;;;;;;7.52;51.04;102739.38;4964424;28;7037;-73
2023/01/24 10:34:40;;;;;;;;;;;;;;;7.54;50.73;102735.34;4975927;28;6812;-73
2023/01/24 10:37:20;;;;;;;;;;;;;;;7.50;51.35;102728.13;4973276;28;7238;-75
2023/01/24 10:39:46;;;;;;;;;;;;;;;7.52;51.22;102725.72;4985785;28;6871;-75
2023/01/24 10:42:26;;;;;;;;;;;;;;;7.50;51.08;102730.69;4967593;28;7215;-75
2023/01/24 10:44:59;;;;;;;;;;;;;;;7.48;51.31;102728.00;5000896;28;8293;-75
2023/01/24 10:47:59;;;;;;;;;;;;;;;7.43;50.65;102725.72;4991389;28;7001;-75
2023/01/24 10:50:43;;;;;;;;;;;;;;;7.43;51.35;102723.16;4977245;28;7043;-75
2023/01/24 10:53:26;;;;;;;;;;;;;;;7.49;51.66;102726.31;4985470;28;6796;-75
2023/01/24 10:56:03;;;;;;;;;;;;;;;7.53;51.62;102728.41;4976466;28;6820;-74
2023/01/24 10:58:34;;;;;;;;;;;;;;;7.57;51.75;102721.97;4980309;28;6808;-75
2023/01/24 11:01:20;;;;;;;;;;;;;;;7.61;50.68;102727.50;4981983;28;6808;-75
2023/01/24 11:03:49;;;;;;;;;;;;;;;7.66;51.25;102724.53;4976390;28;6961;-75
2023/01/24 11:06:37;;;;;;;;;;;;;;;7.68;51.31;102723.03;4976262;28;7527;-75
2023/01/24 11:09:12;;;;;;;;;;;;;;;7.68;50.47;102730.69;4983611;28;7004;-75
2023/01/24 11:11:52;;;;;;;;;;;;;;;7.64;51.47;102726.91;4983665;28;7054;-75
2023/01/24 11:14:34;;;;;;;;;;;;;;;7.65;50.94;102723.63;4996292;28;6939;-75
2023/01/24 11:17:01;;;;;;;;;;;;;;;7.67;50.47;102716.13;4966492;28;6988;-75
2023/01/24 11:19:34;;;;;;;;;;;;;;;7.70;51.60;102718.97;4982071;28;6995;-75
2023/01/24 11:22:24;;;;;;;;;;;;;;;7.71;50.31;102723.31;4984168;28;6796;-75
2023/01/24 11:24:50;;;;;;;;;;;;;;;7.73;51.03;102721.81;4980139;28;7298;-75
2023/01/24 11:27:19;;;;;;;;;;;;;;;7.69;50.50;102717.16;4974039;28;7056;-75
2023/01/24 11:30:03;;;;;;;;;;;;;;;7.68;50.40;102723.03;4977202;28;6784;-75
2023/01/24 11:32:53;;;;;;;;;;;;;;;7.63;50.15;102726.03;4984494;28;6828;-75
2023/01/24 11:35:29;;;;;;;;;;;;;;;7.57;50.12;102717.78;4982022;28;6816;-75
2023/01/24 11:38:34;;;;;;;;;;;;;;;7.52;50.45;102711.31;4967574;28;6888;-75
2023/01/24 11:41:27;;;;;;;;;;;;;;;7.46;50.73;102715.84;4984806;28;7031;-75
2023/01/24 11:44:34;;;;;;;;;;;;;;;7.43;50.83;102707.84;4977166;28;6823;-73
2023/01/24 11:47:15;;;;;;;;;;;;;;;7.43;51.19;102702.75;4980147;28;6808;-73
2023/01/24 11:50:28;;;;;;;;;;;;;;;7.45;50.71;102699.59;4996615;28;6811;-73
2023/01/24 11:53:29;;;;;;;;;;;;;;;7.45;50.64;102694.50;4984392;28;7639;-73
2023/01/24 11:56:31;;;;;;;;;;;;;;;7.48;50.40;102694.81;4986703;28;6831;-73
2023/01/24 11:59:26;;;;;;;;;;;;;;;7.50;51.20;102684.75;4980086;28;7144;-73
2023/01/24 12:02:20;;;;;;;;;;;;;;;7.56;50.78;102693.00;4979983;28;6830;-73
2023/01/24 12:05:12;;;;;;;;;;;;;;;7.59;51.24;102683.09;4981508;28;6831;-73
2023/01/24 12:08:01;;;;;;;;;;;;;;;7.61;51.61;102681.56;4982532;28;6804;-74
2023/01/24 12:10:55;;;;;;;;;;;;;;;7.62;50.92;102673.16;4983773;28;6915;-74
2023/01/24 12:13:46;;;;;;;;;;;;;;;7.62;50.06;102682.50;4978278;28;6840;-74
2023/01/24 12:17:01;;;;;;;;;;;;;;;7.58;50.23;102672.72;4982170;28;7199;-73
2023/01/24 12:20:01;;;;;;;;;;;;;;;7.58;50.32;102660.88;4981946;28;7023;-73
2023/01/24 12:22:29;;;;;;;;;;;;;;;7.62;50.64;102668.06;4996231;28;7022;-74
2023/01/24 12:25:16;;;;;;;;;;;;;;;7.65;50.51;102662.34;4966260;28;7003;-73
2023/01/24 12:27:45;;;;;;;;;;;;;;;7.67;50.55;102662.50;4983666;28;6992;-73
2023/01/24 12:30:40;;;;;;;;;;;;;;;7.67;51.05;102655.75;4972940;28;7090;-74
2023/01/24 12:33:44;;;;;;;;;;;;;;;7.71;50.42;102662.03;4971384;28;7228;-73
2023/01/24 12:36:47;;;;;;;;;;;;;;;7.68;50.52;102656.66;4979560;28;7114;-73
2023/01/24 12:39:20;;;;;;;;;;;;;;;7.67;51.45;102654.84;4981689;28;7969;-74
2023/01/24 12:42:01;;;;;;;;;;;;;;;7.68;51.04;102647.34;4985016;28;7203;-74
2023/01/24 12:44:37;;;;;;;;;;;;;;;7.71;50.15;102662.97;4979803;28;6943;-74
2023/01/24 12:47:32;;;;;;;;;;;;;;;7.69;50.64;102649.16;4970392;28;7572;-73
2023/01/24 12:50:53;;;;;;;;;;;;;;;7.63;50.46;102644.38;4986054;28;6816;-73
2023/01/24 12:53:26;;;;;;;;;;;;;;;7.54;50.58;102646.03;4977271;28;7169;-74
2023/01/24 12:56:09;;;;;;;;;;;;;;;7.50;50.82;102641.34;4995142;28;7205;-74
2023/01/24 12:58:41;;;;;;;;;;;;;;;7.46;50.58;102639.28;4969761;28;7297;-74
2023/01/24 13:01:23;;;;;;;;;;;;;;;7.43;51.15;102634.78;4977304;28;7026;-73
2023/01/24 13:04:16;;;;;;;;;;;;;;;7.43;51.01;102632.22;4986331;28;6998;-73
2023/01/24 13:07:09;;;;;;;;;;;;;;;7.45;50.08;102628.16;4973680;28;6819;-74
2023/01/24 13:10:04;;;;;;;;;;;;;;;7.47;50.62;102618.09;4989985;28;7205;-74
2023/01/24 13:12:31;;;;;;;;;;;;;;;7.48;50.59;102619.91;4982656;28;7118;-74
2023/01/24 13:15:26;;;;;;;;;;;;;;;7.49;49.93;102616.59;4984818;28;7290;-73
2023/01/24 13:17:57;;;;;;;;;;;;;;;7.51;51.17;102615.09;4973011;28;6816;-73
2023/01/24 13:20:59;;;;;;;;;;;;;;;7.54;50.17;102617.97;4980285;28;8094;-74
2023/01/24 13:23:52;;;;;;;;;;;;;;;7.56;50.74;102624.09;4944989;28;6864;-74
2023/01/24 13:26:40;;;;;;;;;;;;;;;7.59;50.52;102628.59;4977346;28;11764;-73
2023/01/24 13:29:26;;;;;;;;;;;;;;;7.57;51.26;102627.53;4980863;28;6808;-74
2023/01/24 13:32:14;;;;;;;;;;;;;;;7.56;50.72;102631.75;4993962;28;7006;-73
2023/01/24 13:34:50;;;;;;;;;;;;;;;7.55;50.82;102632.50;4982868;28;6808;-73
2023/01/24 13:37:31;;;;;;;;;;;;;;;7.58;50.17;102626.78;4971870;28;6942;-73
2023/01/24 13:40:15;;;;;;;;;;;;;;;7.59;50.64;102626.94;4966285;28;8116;-74
2023/01/24 13:42:41;;;;;;;;;;;;;;;7.60;51.08;102632.97;4974039;28;7295;-73
2023/01/24 13:45:25;;;;;;;;;;;;;;;7.64;51.05;102627.38;4957360;28;8030;-73
2023/01/24 13:47:58;;;;;;;;;;;;;;;7.67;50.40;102625.09;4966990;28;7174;-73
2023/01/24 13:50:26;;;;;;;;;;;;;;;7.71;51.22;102623.75;4971403;28;7239;-73
2023/01/24 13:52:57;;;;;;;;;;;;;;;7.71;50.46;102623.75;4991738;28;8288;-73
2023/01/24 13:55:22;;;;;;;;;;;;;;;7.70;51.16;102627.06;4981308;28;7475;-73
2023/01/24 13:58:06;;;;;;;;;;;;;;;7.67;50.01;102626.78;4979979;28;6764;-73
2023/01/24 14:00:41;;;;;;;;;;;;;;;7.66;50.23;102624.97;4981964;28;6792;-73
2023/01/24 14:03:28;;;;;;;;;;;;;;;7.62;50.17;102624.66;4981348;28;8064;-73
2023/01/24 14:06:02;;;;;;;;;;;;;;;7.59;50.31;102620.94;4982464;28;6780;-74
2023/01/24 14:08:28;;;;;;;;;;;;;;;7.58;50.04;102621.66;4982700;28;7638;-73
2023/01/24 14:11:02;;;;;;;;;;;;;;;7.53;50.98;102626.34;4984535;28;6760;-74